Time;durP1;ratioP1;P1;durP2;ratioP2;P2;SDS_P1;SDS_P2;PMS_P1;PMS_P2;Temp;Humidity;BMP_temperature;BMP_pressure;BME280_temperature;BME280_humidity;BME280_pressure;Samples;Min_cycle;Max_cycle;Signal;HPM_P1;HPM_P2
2023/05/17 00:00:53;;;;;;;1.10;1.10;;;;;;;13.20;100.00;96490.97;5063902;28;20583;-67
2023/05/17 00:03:20;;;;;;;1.10;1.10;;;;;;;13.42;100.00;96532.28;5062949;28;20044;-69
2023/05/17 00:05:47;;;;;;;1.00;1.00;;;;;;;13.45;100.00;96539.81;5063960;28;20052;-67
2023/05/17 00:08:13;;;;;;;1.10;1.10;;;;;;;13.58;100.00;96551.31;5064399;28;20079;-69
2023/05/17 00:10:40;;;;;;;1.10;1.10;;;;;;;13.70;100.00;96534.19;5064174;28;20048;-69
2023/05/17 00:13:07;;;;;;;1.10;1.10;;;;;;;13.80;100.00;96529.78;5064291;28;20059;-67
2023/05/17 00:15:33;;;;;;;1.00;1.00;;;;;;;13.66;100.00;96498.00;5064422;28;20123;-68
2023/05/17 00:18:00;;;;;;;1.20;1.20;;;;;;;13.93;99.42;96533.69;5064040;28;20057;-68
2023/05/17 00:20:27;;;;;;;1.20;1.20;;;;;;;13.80;97.07;96552.06;5063979;28;20057;-68
2023/05/17 00:22:54;;;;;;;1.00;1.00;;;;;;;13.44;97.29;96493.72;5062495;28;20048;-68
2023/05/17 00:25:20;;;;;;;1.13;1.13;;;;;;;14.03;96.64;96539.22;5062592;28;20048;-66
2023/05/17 00:27:47;;;;;;;1.10;1.10;;;;;;;14.09;96.84;96532.03;5063740;28;20067;-69
2023/05/17 00:30:14;;;;;;;1.20;1.20;;;;;;;14.20;97.63;96531.97;5063514;28;20109;-66
2023/05/17 00:32:40;;;;;;;1.15;1.15;;;;;;;13.58;100.00;96490.09;5063708;28;20059;-68
2023/05/17 00:35:07;;;;;;;1.10;1.10;;;;;;;13.85;99.62;96548.84;5064036;28;20041;-67
2023/05/17 00:37:34;;;;;;;1.00;1.00;;;;;;;13.82;100.00;96550.44;5062153;28;20049;-66
2023/05/17 00:40:01;;;;;;;1.20;1.20;;;;;;;13.35;98.83;96465.53;5063940;28;20048;-68
2023/05/17 00:42:28;;;;;;;1.10;1.10;;;;;;;13.62;100.00;96547.31;5063510;28;20049;-66
2023/05/17 00:44:55;;;;;;;1.10;1.10;;;;;;;13.64;100.00;96542.16;5063927;28;20048;-68
2023/05/17 00:47:22;;;;;;;1.20;1.20;;;;;;;13.73;100.00;96524.22;5063558;28;20052;-67
2023/05/17 00:49:50;;;;;;;1.10;1.10;;;;;;;13.70;100.00;96525.84;5064055;28;20454;-68
2023/05/17 00:52:17;;;;;;;1.00;1.00;;;;;;;13.94;99.54;96529.72;5062495;28;20499;-66
2023/05/17 00:54:45;;;;;;;1.10;1.10;;;;;;;13.54;96.79;96467.84;5062579;28;20055;-68
2023/05/17 00:57:12;;;;;;;1.10;1.10;;;;;;;14.09;95.63;96531.22;5063309;28;20049;-69
2023/05/17 00:59:38;;;;;;;1.10;1.10;;;;;;;14.08;95.27;96532.44;5064299;28;20049;-68
2023/05/17 01:02:05;;;;;;;1.17;1.17;;;;;;;13.67;96.46;96476.56;5063708;28;20076;-65
2023/05/17 01:04:32;;;;;;;1.15;1.15;;;;;;;13.79;96.80;96478.06;5063708;28;20054;-68
2023/05/17 01:06:59;;;;;;;1.30;1.30;;;;;;;14.03;96.51;96489.09;5063422;28;20079;-67
2023/05/17 01:09:25;;;;;;;1.13;1.13;;;;;;;14.27;95.66;96515.25;5063691;28;20055;-67
2023/05/17 01:12:04;;;;;;;1.10;1.10;;;;;;;14.19;95.48;96513.69;5063016;28;20059;-66
2023/05/17 01:14:37;;;;;;;1.17;1.17;;;;;;;14.23;94.56;96514.44;5063723;28;20060;-66
2023/05/17 01:17:21;;;;;;;1.10;1.10;;;;;;;14.28;94.49;96511.25;5063189;28;20075;-66
2023/05/17 01:19:59;;;;;;;;;;;;;;;14.16;93.67;96503.34;5064178;28;20087;-65
2023/05/17 01:23:12;;;;;;;1.10;1.10;;;;;;;14.01;95.48;96501.81;5063515;28;19924;-65
2023/05/17 01:26:15;;;;;;;1.10;1.10;;;;;;;13.91;93.77;96491.56;5057853;28;20044;-68
2023/05/17 01:28:46;;;;;;;1.10;1.10;;;;;;;13.81;94.38;96497.94;5062703;28;20076;-67
2023/05/17 01:31:13;;;;;;;1.10;1.10;;;;;;;13.93;94.93;96505.84;5063451;28;20269;-67
2023/05/17 01:33:40;;;;;;;1.20;1.20;;;;;;;14.05;95.14;96497.03;5066129;28;20478;-67
2023/05/17 01:36:07;;;;;;;1.20;1.20;;;;;;;14.14;94.71;96500.16;5065058;28;20580;-65
2023/05/17 01:38:34;;;;;;;1.20;1.20;;;;;;;14.24;92.83;96488.19;5064942;28;20053;-65
2023/05/17 01:41:05;;;;;;;1.23;1.23;;;;;;;14.24;95.09;96488.19;5067381;28;20076;-67
2023/05/17 01:43:45;;;;;;;1.20;1.20;;;;;;;14.29;97.25;96462.72;5066475;28;20063;-66
2023/05/17 01:46:26;;;;;;;1.20;1.20;;;;;;;14.33;96.65;96469.03;5066540;28;20518;-67
2023/05/17 01:49:18;;;;;;;1.20;1.20;;;;;;;14.31;95.47;96463.88;5066956;28;20056;-67
2023/05/17 01:51:49;;;;;;;1.20;1.20;;;;;;;14.20;95.23;96465.09;5065302;28;20053;-67
2023/05/17 01:54:22;;;;;;;1.20;1.20;;;;;;;13.67;94.14;96388.25;5066627;28;20131;-67
2023/05/17 01:56:57;;;;;;;1.13;1.13;;;;;;;14.06;97.05;96448.50;5066178;28;20052;-69
2023/05/17 01:59:25;;;;;;;1.20;1.20;;;;;;;13.75;98.60;96410.50;5064785;28;20050;-67
2023/05/17 02:02:07;;;;;;;1.10;1.10;;;;;;;14.11;98.28;96442.50;5064915;28;20061;-67
2023/05/17 02:04:35;;;;;;;1.20;1.20;;;;;;;14.01;98.82;96423.84;5066274;28;20052;-67
2023/05/17 02:07:02;;;;;;;1.00;1.00;;;;;;;13.92;98.69;96427.09;5066099;28;20151;-68
2023/05/17 02:09:29;;;;;;;1.27;1.27;;;;;;;13.96;97.40;96421.53;5064969;28;20076;-66
2023/05/17 02:11:56;;;;;;;1.10;1.10;;;;;;;14.01;94.09;96429.41;5066333;28;20167;-68
2023/05/17 02:14:23;;;;;;;1.10;1.10;;;;;;;14.12;90.97;96452.44;5065992;28;20045;-67
2023/05/17 02:16:50;;;;;;;1.20;1.20;;;;;;;13.46;90.03;96355.00;5065987;28;20507;-67
2023/05/17 02:19:17;;;;;;;1.30;1.30;;;;;;;14.00;89.47;96441.78;5064530;28;20060;-68
2023/05/17 02:21:44;;;;;;;1.13;1.13;;;;;;;13.95;89.14;96437.44;5066362;28;20049;-67
2023/05/17 02:24:10;;;;;;;1.20;1.20;;;;;;;13.98;87.91;96441.38;5066082;28;20140;-65
2023/05/17 02:26:41;;;;;;;1.20;1.20;;;;;;;13.94;85.38;96440.63;5065608;28;20049;-67
2023/05/17 02:29:09;;;;;;;1.20;1.20;;;;;;;13.85;86.65;96431.94;5065405;28;20125;-68
2023/05/17 02:31:36;;;;;;;0.95;0.95;;;;;;;13.43;89.85;96405.91;5064405;28;20080;-69
2023/05/17 02:34:03;;;;;;;1.20;1.20;;;;;;;13.38;92.71;96431.34;5065909;28;20158;-67
2023/05/17 02:36:31;;;;;;;1.20;1.20;;;;;;;13.47;92.19;96448.38;5066085;28;20052;-69
2023/05/17 02:38:58;;;;;;;1.10;1.10;;;;;;;13.61;91.45;96451.13;5065000;28;20503;-69
2023/05/17 02:41:25;;;;;;;1.20;1.20;;;;;;;13.75;92.95;96439.13;5065152;28;20503;-68
2023/05/17 02:43:51;;;;;;;1.20;1.20;;;;;;;13.68;94.23;96434.41;5063535;28;20057;-66
2023/05/17 02:46:18;;;;;;;1.20;1.20;;;;;;;13.91;92.82;96435.88;5063252;28;20048;-68
2023/05/17 02:48:45;;;;;;;1.10;1.10;;;;;;;13.54;94.54;96434.47;5064258;28;20044;-69
2023/05/17 02:51:11;;;;;;;1.13;1.13;;;;;;;13.61;95.19;96439.97;5064497;28;20774;-69
2023/05/17 02:53:38;;;;;;;1.02;1.02;;;;;;;13.08;95.83;96332.94;5064106;28;20063;-67
2023/05/17 02:56:05;;;;;;;1.20;1.20;;;;;;;13.75;95.54;96444.72;5064592;28;20063;-66
2023/05/17 02:58:32;;;;;;;1.20;1.20;;;;;;;13.59;97.02;96442.38;5063859;28;20054;-67
2023/05/17 03:00:58;;;;;;;1.10;1.10;;;;;;;13.65;99.04;96446.34;5055646;28;20060;-68
2023/05/17 03:03:25;;;;;;;1.10;1.10;;;;;;;13.56;97.71;96414.59;5045664;28;20562;-68
2023/05/17 03:05:52;;;;;;;1.05;1.05;;;;;;;13.69;98.34;96444.31;5044038;28;20507;-68
2023/05/17 03:08:18;;;;;;;1.00;1.00;;;;;;;13.89;98.30;96449.38;5045039;28;20059;-67
2023/05/17 03:10:46;;;;;;;1.10;1.10;;;;;;;13.97;97.35;96451.75;5043788;28;20052;-68
2023/05/17 03:13:12;;;;;;;1.10;1.10;;;;;;;13.70;97.14;96425.63;5045182;28;20431;-67
2023/05/17 03:15:39;;;;;;;1.15;1.15;;;;;;;13.93;97.19;96472.44;5044995;28;20049;-67
2023/05/17 03:18:06;;;;;;;1.10;1.10;;;;;;;13.62;97.57;96424.84;5044933;28;20056;-68
2023/05/17 03:20:32;;;;;;;1.30;1.30;;;;;;;14.04;96.92;96478.72;5045169;28;20115;-68
2023/05/17 03:22:59;;;;;;;1.08;1.08;;;;;;;13.39;98.17;96477.44;5051833;28;20247;-68
2023/05/17 03:25:26;;;;;;;1.00;1.00;;;;;;;12.77;100.00;96489.44;5064732;28;20045;-67
2023/05/17 03:27:53;;;;;;;1.00;1.00;;;;;;;12.93;100.00;96490.59;5064531;28;20060;-67
2023/05/17 03:30:19;;;;;;;1.00;1.00;;;;;;;12.40;100.00;96487.06;5064726;28;20117;-67
2023/05/17 03:32:46;;;;;;;0.95;0.95;;;;;;;12.52;100.00;96491.44;5062757;28;20045;-66
2023/05/17 03:35:13;;;;;;;1.10;1.10;;;;;;;12.55;100.00;96483.06;5064149;28;20051;-65
2023/05/17 03:37:39;;;;;;;0.90;0.90;;;;;;;12.93;100.00;96487.81;5075642;28;20044;-68
2023/05/17 03:40:07;;;;;;;0.95;0.95;;;;;;;13.19;100.00;96495.78;5084508;28;20484;-66
2023/05/17 03:42:33;;;;;;;1.00;1.00;;;;;;;12.77;100.00;96497.78;5084828;28;20071;-66
2023/05/17 03:45:00;;;;;;;1.00;1.00;;;;;;;12.62;100.00;96499.75;5082706;28;20063;-67
2023/05/17 03:47:27;;;;;;;1.00;1.00;;;;;;;12.31;100.00;96500.53;5084423;28;20532;-65
2023/05/17 03:49:53;;;;;;;0.90;0.90;;;;;;;12.17;100.00;96494.97;5082722;28;20044;-67
2023/05/17 03:52:20;;;;;;;0.90;0.90;;;;;;;11.92;100.00;96422.72;5084160;28;20507;-66
2023/05/17 03:54:47;;;;;;;1.00;1.00;;;;;;;12.29;100.00;96449.34;5084012;28;20502;-68
2023/05/17 03:57:13;;;;;;;1.05;1.05;;;;;;;12.98;100.00;96495.75;5084380;28;20085;-67
2023/05/17 03:59:40;;;;;;;1.05;1.05;;;;;;;13.27;100.00;96502.09;5084367;28;20056;-68
2023/05/17 04:02:07;;;;;;;1.00;1.00;;;;;;;13.58;100.00;96498.44;5083241;28;20052;-67
2023/05/17 04:04:33;;;;;;;1.10;1.10;;;;;;;13.76;98.68;96495.59;5084202;28;20048;-66
2023/05/17 04:07:01;;;;;;;1.00;1.00;;;;;;;13.94;96.85;96496.31;5084346;28;20473;-68
2023/05/17 04:09:30;;;;;;;1.20;1.20;;;;;;;14.11;96.37;96489.84;5084434;28;20116;-68
2023/05/17 04:11:56;;;;;;;1.30;1.30;;;;;;;14.14;95.96;96500.16;5084466;28;20054;-68
2023/05/17 04:14:23;;;;;;;1.20;1.20;;;;;;;14.36;95.03;96496.09;5082790;28;20573;-66
2023/05/17 04:16:50;;;;;;;1.30;1.30;;;;;;;14.39;92.89;96503.63;5084406;28;20172;-68
2023/05/17 04:19:17;;;;;;;1.13;1.13;;;;;;;14.52;92.76;96519.47;5084386;28;20055;-68
2023/05/17 04:21:44;;;;;;;1.20;1.20;;;;;;;14.74;90.41;96495.00;5082684;28;20051;-68
2023/05/17 04:24:11;;;;;;;1.15;1.15;;;;;;;14.83;89.78;96504.50;5082725;28;20101;-69
2023/05/17 04:26:38;;;;;;;1.48;1.48;;;;;;;15.03;89.48;96501.94;5083949;28;20055;-65
2023/05/17 04:29:05;;;;;;;1.40;1.40;;;;;;;15.14;88.54;96508.97;5083951;28;20066;-68
2023/05/17 04:31:32;;;;;;;1.30;1.30;;;;;;;15.20;88.55;96500.97;5083556;28;20050;-68
2023/05/17 04:33:59;;;;;;;1.30;1.30;;;;;;;15.10;87.88;96490.69;5084257;28;20052;-69
2023/05/17 04:36:26;;;;;;;1.27;1.27;;;;;;;15.38;86.01;96496.03;5083563;28;20052;-70
2023/05/17 04:38:52;;;;;;;1.27;1.27;;;;;;;15.60;85.28;96497.38;5083944;28;20060;-66
2023/05/17 04:41:19;;;;;;;1.48;1.48;;;;;;;15.78;83.21;96509.16;5083435;28;20491;-69
2023/05/17 04:43:46;;;;;;;1.48;1.48;;;;;;;15.87;83.38;96495.47;5083719;28;20051;-68
2023/05/17 04:46:13;;;;;;;1.60;1.60;;;;;;;15.71;83.94;96491.69;5083365;28;20094;-68
2023/05/17 04:48:40;;;;;;;1.52;1.52;;;;;;;15.81;84.88;96462.81;5081079;28;20040;-69
2023/05/17 04:51:07;;;;;;;1.50;1.50;;;;;;;15.77;85.22;96457.31;5085883;28;20051;-66
2023/05/17 04:53:33;;;;;;;1.60;1.60;;;;;;;16.19;84.99;96501.44;5065101;28;20056;-69
2023/05/17 04:56:00;;;;;;;1.60;1.60;;;;;;;16.34;83.10;96504.81;5063521;28;20050;-68
2023/05/17 04:58:27;;;;;;;1.60;1.60;;;;;;;16.34;83.36;96496.44;5062190;28;20056;-68
2023/05/17 05:00:54;;;;;;;1.52;1.52;;;;;;;16.31;83.74;96498.06;5063378;28;20052;-69
2023/05/17 05:03:22;;;;;;;1.70;1.70;;;;;;;16.53;82.83;96499.34;5061724;28;20067;-69
2023/05/17 05:05:48;;;;;;;1.55;1.55;;;;;;;16.31;83.25;96498.06;5063366;28;20588;-66
2023/05/17 05:08:15;;;;;;;1.65;1.65;;;;;;;15.86;83.18;96432.44;5065847;28;20148;-67
2023/05/17 05:10:42;;;;;;;1.60;1.60;;;;;;;16.48;83.00;96499.84;5065539;28;20059;-67
2023/05/17 05:13:08;;;;;;;1.60;1.60;;;;;;;16.47;83.40;96494.69;5067127;28;20411;-66
2023/05/17 05:15:35;;;;;;;1.55;1.55;;;;;;;15.99;83.95;96427.88;5067240;28;20060;-67
2023/05/17 05:18:02;;;;;;;1.60;1.60;;;;;;;16.44;83.70;96499.09;5067331;28;20057;-67
2023/05/17 05:20:30;;;;;;;1.35;1.35;;;;;;;16.63;83.84;96504.00;5066730;28;20529;-68
2023/05/17 05:22:57;;;;;;;1.50;1.50;;;;;;;16.78;83.63;96492.59;5067547;28;20051;-67
2023/05/17 05:25:24;;;;;;;1.63;1.63;;;;;;;16.70;83.01;96463.16;5065560;28;20055;-67
2023/05/17 05:27:51;;;;;;;1.60;1.60;;;;;;;17.07;81.78;96486.09;5066607;28;20067;-67
2023/05/17 05:30:20;;;;;;;1.60;1.60;;;;;;;16.92;81.82;96436.41;5064852;28;20048;-67
2023/05/17 05:32:49;;;;;;;1.48;1.48;;;;;;;17.63;80.89;96501.09;5065074;28;20052;-67
2023/05/17 05:35:16;;;;;;;1.90;1.90;;;;;;;17.86;79.46;96495.47;5065203;28;20114;-67
2023/05/17 05:37:43;;;;;;;1.60;1.60;;;;;;;18.04;78.00;96490.25;5078066;28;20048;-64
2023/05/17 05:40:11;;;;;;;1.80;1.80;;;;;;;18.11;76.67;96495.75;5086958;28;20484;-68
2023/05/17 05:42:38;;;;;;;1.40;1.40;;;;;;;18.19;75.83;96491.56;5085488;28;20052;-68
2023/05/17 05:45:05;;;;;;;1.60;1.60;;;;;;;18.35;75.48;96482.41;5086841;28;20059;-66
2023/05/17 05:47:32;;;;;;;1.90;1.90;;;;;;;18.18;76.20;96487.16;5086526;28;20058;-67
2023/05/17 05:49:59;;;;;;;1.50;1.50;;;;;;;18.12;77.47;96480.50;5087097;28;20055;-67
2023/05/17 05:52:26;;;;;;;1.65;1.65;;;;;;;18.03;74.29;96455.06;5080392;28;20049;-64
2023/05/17 05:54:52;;;;;;;1.73;1.73;;;;;;;17.57;74.78;96393.59;5085955;28;20511;-60
2023/05/17 05:57:19;;;;;;;1.90;1.90;;;;;;;18.10;75.68;96482.94;5086401;28;20121;-57
2023/05/17 05:59:46;;;;;;;1.67;1.67;;;;;;;17.77;75.78;96402.78;5083815;28;20059;-60
2023/05/17 06:02:12;;;;;;;1.80;1.80;;;;;;;17.17;76.29;96325.59;5084580;28;20059;-58
2023/05/17 06:04:39;;;;;;;1.95;1.95;;;;;;;17.58;78.05;96446.38;5079954;28;20044;-70
2023/05/17 06:07:11;;;;;;;1.70;1.70;;;;;;;16.98;80.56;96429.09;5065727;28;20502;-70
2023/05/17 06:09:39;;;;;;;1.75;1.75;;;;;;;17.47;77.87;96422.59;5083990;28;20044;-74
2023/05/17 06:12:05;;;;;;;1.52;1.52;;;;;;;17.88;78.42;96453.78;5063067;28;20052;-71
2023/05/17 06:14:32;;;;;;;1.90;1.90;;;;;;;18.50;75.93;96462.03;5076858;28;20299;-61
2023/05/17 06:16:59;;;;;;;1.95;1.95;;;;;;;18.49;74.44;96421.19;5081136;28;20526;-64
2023/05/17 06:19:25;;;;;;;1.80;1.80;;;;;;;19.24;72.79;96466.59;5085418;28;20134;-61
2023/05/17 06:21:52;;;;;;;2.00;2.00;;;;;;;19.55;71.87;96464.97;5085858;28;20066;-65
2023/05/17 06:24:19;;;;;;;1.85;1.85;;;;;;;19.35;69.99;96377.25;5071543;28;20169;-64
2023/05/17 06:26:46;;;;;;;1.80;1.80;;;;;;;20.20;69.54;96470.41;5083369;28;20107;-58
2023/05/17 06:29:12;;;;;;;2.00;2.00;;;;;;;20.17;69.30;96466.44;5100281;28;20139;-61
2023/05/17 06:31:39;;;;;;;1.73;1.73;;;;;;;19.68;68.79;96394.00;5077307;28;20058;-60
2023/05/17 06:34:06;;;;;;;1.83;1.83;;;;;;;19.94;68.91;96429.38;5071933;28;20056;-60
2023/05/17 06:36:34;;;;;;;1.83;1.83;;;;;;;20.42;68.50;96486.19;5084230;28;20063;-59
2023/05/17 06:39:03;;;;;;;1.95;1.95;;;;;;;20.69;68.04;96491.41;5085428;28;20056;-73
2023/05/17 06:41:30;;;;;;;2.00;2.00;;;;;;;19.91;70.16;96526.63;5083504;28;20484;-59
2023/05/17 06:43:57;;;;;;;2.00;2.00;;;;;;;20.20;70.43;96484.47;5085605;28;20051;-66
2023/05/17 06:46:23;;;;;;;2.10;2.10;;;;;;;19.08;70.28;96329.03;5076327;28;20051;-60
2023/05/17 06:48:50;;;;;;;2.28;2.28;;;;;;;20.66;69.58;96481.81;5083409;28;20047;-70
2023/05/17 06:51:17;;;;;;;2.20;2.20;;;;;;;21.12;68.60;96483.16;5083957;28;20080;-70
2023/05/17 06:53:43;;;;;;;2.47;2.38;;;;;;;21.28;67.50;96488.66;5084317;28;20070;-64
2023/05/17 06:56:10;;;;;;;2.03;2.03;;;;;;;21.12;68.39;96491.63;5066217;28;20491;-58
2023/05/17 06:58:37;;;;;;;2.20;2.20;;;;;;;20.99;68.26;96437.34;5073194;28;20054;-76
2023/05/17 07:01:04;;;;;;;2.17;2.17;;;;;;;19.22;68.53;96221.94;5082549;28;20109;-77
2023/05/17 07:03:31;;;;;;;2.17;2.17;;;;;;;20.67;69.36;96451.66;5066677;28;20161;-67
2023/05/17 07:05:58;;;;;;;1.90;1.90;;;;;;;18.53;76.32;96405.06;5064700;28;20045;-58
2023/05/17 07:08:25;;;;;;;2.00;2.00;;;;;;;18.49;79.33;96443.63;5063645;28;20515;-77
2023/05/17 07:10:52;;;;;;;2.08;2.08;;;;;;;19.39;79.45;96467.81;5069602;28;20052;-58
2023/05/17 07:13:19;;;;;;;1.80;1.80;;;;;;;18.27;80.18;96366.81;5079471;28;20117;-61
2023/05/17 07:15:46;;;;;;;1.88;1.88;;;;;;;18.22;85.58;96468.25;5066018;28;20056;-72
2023/05/17 07:18:13;;;;;;;1.70;1.70;;;;;;;16.74;87.90;96296.84;5062798;28;20527;-75
2023/05/17 07:20:39;;;;;;;1.77;1.77;;;;;;;18.14;88.72;96517.31;5064598;28;20134;-63
2023/05/17 07:23:06;;;;;;;1.70;1.70;;;;;;;18.50;88.49;96483.69;5064299;28;20099;-64
2023/05/17 07:25:37;;;;;;;1.65;1.65;;;;;;;19.21;82.77;96495.56;5063045;28;20045;-63
2023/05/17 07:28:04;;;;;;;1.95;1.95;;;;;;;18.31;86.12;96499.28;5063764;28;20531;-63
2023/05/17 07:30:31;;;;;;;1.73;1.73;;;;;;;17.68;87.09;96372.56;5062093;28;20056;-72
2023/05/17 07:32:57;;;;;;;1.50;1.50;;;;;;;18.57;85.47;96500.34;5064273;28;20424;-63
2023/05/17 07:35:24;;;;;;;2.00;2.00;;;;;;;18.32;83.94;96463.66;5064540;28;20056;-63
2023/05/17 07:37:51;;;;;;;1.60;1.60;;;;;;;17.39;89.15;96449.94;5064306;28;20059;-74
2023/05/17 07:40:17;;;;;;;1.75;1.75;;;;;;;18.09;88.63;96515.00;5064259;28;20435;-67
2023/05/17 07:42:44;;;;;;;1.40;1.40;;;;;;;17.31;90.33;96509.31;5074033;28;20541;-59
2023/05/17 07:45:11;;;;;;;1.60;1.60;;;;;;;17.52;89.49;96525.72;5084635;28;20058;-64
2023/05/17 07:47:38;;;;;;;1.50;1.50;;;;;;;17.27;92.84;96514.16;5063979;28;20541;-67
2023/05/17 07:50:05;;;;;;;1.67;1.67;;;;;;;17.00;96.69;96521.81;5084893;28;20052;-57
2023/05/17 07:52:32;;;;;;;1.55;1.55;;;;;;;16.95;96.82;96474.72;5063647;28;20054;-58
2023/05/17 07:54:58;;;;;;;1.58;1.58;;;;;;;17.93;92.83;96507.31;5064317;28;20052;-71
2023/05/17 07:57:26;;;;;;;1.52;1.52;;;;;;;17.65;90.40;96507.88;5064278;28;20048;-66
2023/05/17 07:59:52;;;;;;;1.80;1.80;;;;;;;17.06;94.17;96480.94;5070870;28;20056;-59
2023/05/17 08:02:19;;;;;;;1.50;1.50;;;;;;;16.78;93.94;96465.44;5063899;28;20048;-61
2023/05/17 08:04:46;;;;;;;1.50;1.50;;;;;;;16.85;95.24;96515.66;5063818;28;20435;-63
2023/05/17 08:07:13;;;;;;;1.50;1.50;;;;;;;17.35;93.63;96518.41;5064216;28;20052;-67
2023/05/17 08:09:42;;;;;;;1.65;1.65;;;;;;;17.42;92.31;96521.09;5061699;28;20449;-71
2023/05/17 08:12:09;;;;;;;1.60;1.60;;;;;;;16.59;93.11;96441.75;5067944;28;20055;-65
2023/05/17 08:14:35;;;;;;;1.70;1.70;;;;;;;17.00;96.10;96521.81;5072742;28;20067;-60
2023/05/17 08:17:02;;;;;;;1.73;1.73;;;;;;;16.94;95.46;96523.50;5072691;28;20127;-60
2023/05/17 08:19:29;;;;;;;1.50;1.50;;;;;;;17.20;95.00;96519.91;5081824;28;20047;-67
2023/05/17 08:21:56;;;;;;;1.73;1.73;;;;;;;16.96;93.81;96482.69;5076721;28;20573;-60
2023/05/17 08:24:22;;;;;;;1.70;1.70;;;;;;;17.21;94.18;96513.06;5080398;28;20155;-62
2023/05/17 08:26:49;;;;;;;1.50;1.50;;;;;;;17.18;94.10;96508.31;5091433;28;20126;-59
2023/05/17 08:29:16;;;;;;;1.60;1.60;;;;;;;17.09;92.65;96496.88;5072607;28;20064;-61
2023/05/17 08:31:44;;;;;;;1.40;1.40;;;;;;;17.58;94.03;96507.19;5077402;28;20439;-67
2023/05/17 08:34:11;;;;;;;1.70;1.70;;;;;;;17.62;90.86;96460.31;5083762;28;20055;-59
2023/05/17 08:36:41;;;;;;;1.50;1.50;;;;;;;18.11;88.52;96485.28;5083859;28;20134;-61
2023/05/17 08:39:07;;;;;;;1.63;1.63;;;;;;;17.64;87.38;96399.84;5076055;28;20048;-72
2023/05/17 08:41:34;;;;;;;1.90;1.90;;;;;;;18.07;86.12;96438.94;5078040;28;20529;-59
2023/05/17 08:44:05;;;;;;;1.80;1.80;;;;;;;18.58;85.92;96508.34;5087599;28;20059;-59
2023/05/17 08:46:33;;;;;;;1.83;1.83;;;;;;;18.01;88.31;96485.53;5075100;28;20412;-69
2023/05/17 08:49:02;;;;;;;1.60;1.60;;;;;;;17.39;91.95;96426.72;5067722;28;20059;-78
2023/05/17 08:51:31;;;;;;;1.70;1.70;;;;;;;16.78;91.26;96324.78;5084480;28;20079;-61
2023/05/17 08:53:58;;;;;;;1.60;1.60;;;;;;;17.58;94.61;96524.81;5085673;28;20222;-62
2023/05/17 08:56:27;;;;;;;1.70;1.70;;;;;;;14.71;96.94;96041.44;5077363;28;20046;-69
2023/05/17 08:58:55;;;;;;;1.60;1.60;;;;;;;17.81;98.36;96477.13;5079608;28;20066;-64
2023/05/17 09:01:24;;;;;;;1.85;1.85;;;;;;;17.70;95.29;96458.97;5084785;28;20056;-63
2023/05/17 09:03:53;;;;;;;1.92;1.92;;;;;;;18.46;94.13;96497.81;5087233;28;20060;-74
2023/05/17 09:06:21;;;;;;;1.70;1.70;;;;;;;18.26;96.07;96502.59;5079639;28;20055;-68
2023/05/17 09:08:53;;;;;;;1.83;1.83;;;;;;;17.63;96.59;96470.31;5065779;28;20056;-62
2023/05/17 09:11:34;;;;;;;1.70;1.70;;;;;;;17.60;95.10;96499.97;5067480;28;20080;-59
2023/05/17 09:14:05;;;;;;;1.73;1.73;;;;;;;17.52;95.45;96508.91;5073975;28;20430;-62
2023/05/17 09:16:34;;;;;;;1.80;1.80;;;;;;;17.69;96.93;96502.19;5073003;28;20439;-63
2023/05/17 09:19:02;;;;;;;1.40;1.40;;;;;;;18.01;93.31;96502.34;5070790;28;20041;-74
2023/05/17 09:21:30;;;;;;;1.92;1.92;;;;;;;17.62;91.87;96437.91;5085414;28;20048;-60
2023/05/17 09:23:59;;;;;;;1.60;1.60;;;;;;;17.44;92.61;96395.44;5079282;28;20794;-72
2023/05/17 09:26:45;;;;;;;1.80;1.80;;;;;;;17.26;91.01;96378.22;5083969;28;20329;-69
2023/05/17 09:29:14;;;;;;;1.88;1.88;;;;;;;18.08;90.41;96496.59;5086648;28;20474;-71
2023/05/17 09:31:42;;;;;;;1.80;1.80;;;;;;;17.47;93.74;96417.00;5085814;28;20562;-57
2023/05/17 09:34:09;;;;;;;1.77;1.77;;;;;;;17.99;94.07;96499.19;5067698;28;20063;-60
2023/05/17 09:36:37;;;;;;;1.80;1.80;;;;;;;17.95;92.85;96498.47;5086792;28;20511;-70
2023/05/17 09:39:09;;;;;;;1.65;1.65;;;;;;;17.84;96.01;96492.28;5085425;28;20780;-66
2023/05/17 09:41:45;;;;;;;1.80;1.80;;;;;;;16.84;98.91;96379.00;5085364;28;20052;-64
2023/05/17 09:44:13;;;;;;;1.80;1.80;;;;;;;17.92;96.29;96488.13;5077376;28;20059;-61
2023/05/17 09:46:43;;;;;;;1.90;1.90;;;;;;;17.28;92.69;96398.16;5083833;28;20121;-63
2023/05/17 09:49:09;;;;;;;1.90;1.90;;;;;;;17.94;95.56;96489.25;5066996;28;20049;-68
2023/05/17 09:51:46;;;;;;;1.80;1.80;;;;;;;18.10;96.15;96485.72;5068563;28;20055;-66
2023/05/17 09:54:13;;;;;;;1.70;1.70;;;;;;;17.17;96.39;96358.38;5073287;28;20052;-64
2023/05/17 09:56:40;;;;;;;1.63;1.63;;;;;;;16.91;96.32;96356.50;5078706;28;20431;-64
2023/05/17 09:59:15;;;;;;;1.70;1.70;;;;;;;17.72;97.05;96490.16;5066020;28;20059;-77
2023/05/17 10:01:43;;;;;;;1.60;1.60;;;;;;;16.49;100.00;96402.78;5066135;28;20529;-63
2023/05/17 10:04:12;;;;;;;1.70;1.70;;;;;;;17.07;100.00;96488.91;5065975;28;20063;-64
2023/05/17 10:06:41;;;;;;;1.60;1.60;;;;;;;17.27;100.00;96491.75;5062272;28;20056;-63
2023/05/17 10:09:14;;;;;;;1.70;1.70;;;;;;;16.80;100.00;96418.25;5062733;28;20052;-62
2023/05/17 10:11:45;;;;;;;1.50;1.50;;;;;;;16.95;100.00;96477.53;5064260;28;20044;-65
2023/05/17 10:14:21;;;;;;;1.50;1.50;;;;;;;16.76;100.00;96489.44;5063825;28;20051;-63
2023/05/17 10:16:50;;;;;;;1.52;1.52;;;;;;;16.88;100.00;96480.44;5064076;28;20102;-63
2023/05/17 10:19:19;;;;;;;1.67;1.67;;;;;;;17.11;100.00;96483.25;5064270;28;20052;-64
2023/05/17 10:21:49;;;;;;;1.70;1.70;;;;;;;17.05;100.00;96482.16;5063999;28;20463;-69
2023/05/17 10:24:16;;;;;;;1.48;1.48;;;;;;;16.87;100.00;96462.06;5063747;28;20067;-64
2023/05/17 10:26:43;;;;;;;1.50;1.50;;;;;;;16.87;100.00;96462.06;5065422;28;20136;-70
2023/05/17 10:29:10;;;;;;;1.63;1.63;;;;;;;16.93;100.00;96505.16;5065371;28;20064;-70
2023/05/17 10:31:42;;;;;;;1.52;1.52;;;;;;;16.81;100.00;96497.34;5065650;28;20055;-65
2023/05/17 10:34:10;;;;;;;1.70;1.70;;;;;;;16.76;100.00;96511.81;5065845;28;20163;-69
2023/05/17 10:36:38;;;;;;;1.48;1.48;;;;;;;16.13;100.00;96366.19;5065436;28;20131;-70
2023/05/17 10:39:08;;;;;;;1.55;1.55;;;;;;;16.71;100.00;96507.47;5077109;28;20048;-68
2023/05/17 10:41:37;;;;;;;1.70;1.70;;;;;;;16.19;100.00;96425.97;5085559;28;20055;-70
2023/05/17 10:44:07;;;;;;;1.50;1.50;;;;;;;16.54;100.00;96461.81;5085523;28;20506;-71
2023/05/17 10:46:35;;;;;;;1.77;1.77;;;;;;;16.68;100.00;96471.97;5084627;28;20514;-65
2023/05/17 10:49:02;;;;;;;1.60;1.60;;;;;;;16.33;100.00;96411.78;5084932;28;20514;-65
2023/05/17 10:51:32;;;;;;;1.40;1.40;;;;;;;16.76;100.00;96455.88;5083319;28;20051;-72
2023/05/17 10:54:01;;;;;;;1.35;1.35;;;;;;;16.49;100.00;96459.50;5083301;28;20573;-62
2023/05/17 10:56:32;;;;;;;1.77;1.77;;;;;;;16.34;100.00;96424.53;5084474;28;20048;-63
2023/05/17 10:59:30;;;;;;;1.40;1.40;;;;;;;15.98;100.00;96454.22;5084794;28;20058;-72
2023/05/17 11:02:05;;;;;;;1.40;1.40;;;;;;;15.68;100.00;96459.00;5071756;28;20587;-72
2023/05/17 11:04:36;;;;;;;1.42;1.42;;;;;;;15.41;100.00;96458.94;5082428;28;20063;-64
2023/05/17 11:07:31;;;;;;;1.40;1.40;;;;;;;15.62;100.00;96467.03;5084889;28;20090;-71
2023/05/17 11:10:07;;;;;;;1.50;1.50;;;;;;;15.72;100.00;96466.13;5081844;28;20060;-70
2023/05/17 11:12:40;;;;;;;1.30;1.30;;;;;;;15.88;100.00;96471.91;5080990;28;20045;-64
2023/05/17 11:15:11;;;;;;;1.45;1.45;;;;;;;15.50;100.00;96410.97;5084297;28;20051;-62
2023/05/17 11:17:45;;;;;;;1.50;1.50;;;;;;;16.03;100.00;96470.50;5082599;28;20052;-75
2023/05/17 11:20:15;;;;;;;1.50;1.50;;;;;;;16.16;100.00;96474.34;5075947;28;20048;-66
2023/05/17 11:22:58;;;;;;;1.35;1.35;;;;;;;15.42;100.00;96362.03;5073734;28;20040;-67
2023/05/17 11:25:30;;;;;;;1.50;1.50;;;;;;;15.71;100.00;96419.84;5074888;28;20617;-60
2023/05/17 11:27:57;;;;;;;1.52;1.52;;;;;;;16.07;100.00;96470.47;5069954;28;20147;-64
2023/05/17 11:30:27;;;;;;;1.27;1.27;;;;;;;15.89;100.00;96419.63;5069070;28;20566;-67
2023/05/17 11:33:03;;;;;;;1.20;1.20;;;;;;;16.35;100.00;96465.28;5067551;28;20051;-68
2023/05/17 11:35:36;;;;;;;1.33;1.33;;;;;;;16.51;100.00;96473.03;5073534;28;20097;-65
2023/05/17 11:38:16;;;;;;;1.45;1.45;;;;;;;16.61;100.00;96472.88;5082194;28;20495;-63